sensor_id;sensor_type;location;lat;lon;timestamp;pressure;altitude;pressure_sealevel;temperature;humidity
75594;BME280;64176;49.156;7.810;2024-03-23T00:55:55;98356.81;;;8.07;100.00
75594;BME280;64176;49.156;7.810;2024-03-23T00:58:42;98362.84;;;8.01;100.00
75594;BME280;64176;49.156;7.810;2024-03-23T01:01:28;98351.69;;;8.07;100.00
75594;BME280;64176;49.156;7.810;2024-03-23T01:04:13;98358.56;;;8.01;100.00
75594;BME280;64176;49.156;7.810;2024-03-23T01:06:57;98355.13;;;8.02;100.00
75594;BME280;64176;49.156;7.810;2024-03-23T01:09:43;98338.84;;;7.94;100.00
75594;BME280;64176;49.156;7.810;2024-03-23T01:12:30;98342.22;;;7.87;100.00
75594;BME280;64176;49.156;7.810;2024-03-23T01:15:16;98336.22;;;7.75;100.00
75594;BME280;64176;49.156;7.810;2024-03-23T01:18:00;98331.94;;;7.89;100.00
75594;BME280;64176;49.156;7.810;2024-03-23T01:20:47;98333.69;;;7.94;100.00
75594;BME280;64176;49.156;7.810;2024-03-23T01:23:33;98328.50;;;7.96;100.00
75594;BME280;64176;49.156;7.810;2024-03-23T01:26:20;98333.66;;;7.88;100.00
75594;BME280;64176;49.156;7.810;2024-03-23T01:29:09;98337.94;;;7.89;100.00
75594;BME280;64176;49.156;7.810;2024-03-23T01:31:53;98321.69;;;8.06;100.00
75594;BME280;64176;49.156;7.810;2024-03-23T01:34:37;98333.66;;;7.82;100.00
75594;BME280;64176;49.156;7.810;2024-03-23T01:37:23;98334.53;;;7.93;100.00
75594;BME280;64176;49.156;7.810;2024-03-23T01:40:10;98340.53;;;7.97;100.00
75594;BME280;64176;49.156;7.810;2024-03-23T01:43:07;98344.81;;;8.07;100.00
75594;BME280;64176;49.156;7.810;2024-03-23T01:45:51;98334.56;;;8.15;100.00
75594;BME280;64176;49.156;7.810;2024-03-23T01:48:36;98307.94;;;7.99;100.00
75594;BME280;64176;49.156;7.810;2024-03-23T01:51:24;98323.38;;;8.00;100.00
75594;BME280;64176;49.156;7.810;2024-03-23T01:54:13;98310.50;;;7.96;100.00
75594;BME280;64176;49.156;7.810;2024-03-23T01:57:00;98304.53;;;7.94;100.00
75594;BME280;64176;49.156;7.810;2024-03-23T01:59:44;98319.09;;;8.09;100.00
75594;BME280;64176;49.156;7.810;2024-03-23T02:02:28;98316.53;;;7.90;100.00
75594;BME280;64176;49.156;7.810;2024-03-23T02:05:15;98320.81;;;8.08;100.00
75594;BME280;64176;49.156;7.810;2024-03-23T02:07:59;98318.25;;;8.10;100.00
75594;BME280;64176;49.156;7.810;2024-03-23T02:10:46;98307.09;;;8.04;100.00
75594;BME280;64176;49.156;7.810;2024-03-23T02:13:30;98300.25;;;7.94;100.00
75594;BME280;64176;49.156;7.810;2024-03-23T02:16:19;98302.81;;;7.91;100.00
75594;BME280;64176;49.156;7.810;2024-03-23T02:19:03;98293.38;;;7.89;100.00
75594;BME280;64176;49.156;7.810;2024-03-23T02:21:47;98298.50;;;7.90;100.00
75594;BME280;64176;49.156;7.810;2024-03-23T02:24:31;98285.63;;;7.86;100.00
75594;BME280;64176;49.156;7.810;2024-03-23T02:27:15;98285.63;;;7.87;100.00
75594;BME280;64176;49.156;7.810;2024-03-23T02:29:59;98276.22;;;7.92;100.00
75594;BME280;64176;49.156;7.810;2024-03-23T02:32:43;98280.50;;;7.87;100.00
75594;BME280;64176;49.156;7.810;2024-03-23T02:35:29;98278.78;;;7.86;100.00
75594;BME280;64176;49.156;7.810;2024-03-23T02:38:13;98277.06;;;7.97;100.00
75594;BME280;64176;49.156;7.810;2024-03-23T02:41:04;98278.78;;;7.95;100.00
75594;BME280;64176;49.156;7.810;2024-03-23T02:43:52;98273.66;;;8.14;100.00
75594;BME280;64176;49.156;7.810;2024-03-23T02:46:39;98286.50;;;7.97;100.00
75594;BME280;64176;49.156;7.810;2024-03-23T02:49:23;98289.94;;;8.00;100.00
75594;BME280;64176;49.156;7.810;2024-03-23T02:52:07;98285.63;;;8.59;100.00
75594;BME280;64176;49.156;7.810;2024-03-23T02:54:53;98283.72;;;9.14;100.00
75594;BME280;64176;49.156;7.810;2024-03-23T02:57:37;98289.38;;;9.74;100.00
75594;BME280;64176;49.156;7.810;2024-03-23T03:00:22;98293.56;;;9.90;100.00
75594;BME280;64176;49.156;7.810;2024-03-23T03:03:06;98293.41;;;10.08;100.00
75594;BME280;64176;49.156;7.810;2024-03-23T03:05:58;98292.63;;;10.02;100.00
75594;BME280;64176;49.156;7.810;2024-03-23T03:08:42;98294.34;;;10.01;100.00
75594;BME280;64176;49.156;7.810;2024-03-23T03:11:28;98308.97;;;10.04;100.00
75594;BME280;64176;49.156;7.810;2024-03-23T03:14:14;98282.22;;;10.09;100.00
75594;BME280;64176;49.156;7.810;2024-03-23T03:16:58;98289.13;;;10.06;100.00
75594;BME280;64176;49.156;7.810;2024-03-23T03:19:47;98298.50;;;10.20;100.00
75594;BME280;64176;49.156;7.810;2024-03-23T03:22:39;98287.38;;;10.12;100.00
75594;BME280;64176;49.156;7.810;2024-03-23T03:25:23;98277.06;;;10.11;100.00
75594;BME280;64176;49.156;7.810;2024-03-23T03:28:12;98275.31;;;10.16;100.00
75594;BME280;64176;49.156;7.810;2024-03-23T03:30:57;98264.16;;;10.09;100.00
75594;BME280;64176;49.156;7.810;2024-03-23T03:33:43;98261.56;;;10.11;100.00
75594;BME280;64176;49.156;7.810;2024-03-23T03:36:27;98261.56;;;10.11;100.00
75594;BME280;64176;49.156;7.810;2024-03-23T03:39:14;98275.41;;;10.01;100.00
75594;BME280;64176;49.156;7.810;2024-03-23T03:41:58;98277.13;;;10.00;100.00
75594;BME280;64176;49.156;7.810;2024-03-23T03:44:44;98278.00;;;9.99;100.00
75594;BME280;64176;49.156;7.810;2024-03-23T03:47:30;98276.28;;;10.03;100.00
75594;BME280;64176;49.156;7.810;2024-03-23T03:50:14;98280.56;;;10.04;100.00
75594;BME280;64176;49.156;7.810;2024-03-23T03:52:59;98280.59;;;9.99;100.00
75594;BME280;64176;49.156;7.810;2024-03-23T03:55:43;98277.97;;;10.04;100.00
75594;BME280;64176;49.156;7.810;2024-03-23T03:58:29;98269.38;;;10.02;100.00
75594;BME280;64176;49.156;7.810;2024-03-23T04:01:13;98263.41;;;9.95;100.00
75594;BME280;64176;49.156;7.810;2024-03-23T04:04:00;98264.25;;;9.97;100.00
75594;BME280;64176;49.156;7.810;2024-03-23T04:06:46;98278.06;;;9.93;100.00
75594;BME280;64176;49.156;7.810;2024-03-23T04:09:30;98287.56;;;9.86;100.00
75594;BME280;64176;49.156;7.810;2024-03-23T04:12:14;98284.19;;;9.78;100.00
75594;BME280;64176;49.156;7.810;2024-03-23T04:14:58;98276.53;;;9.66;100.00
75594;BME280;64176;49.156;7.810;2024-03-23T04:17:42;98293.75;;;9.63;100.00
75594;BME280;64176;49.156;7.810;2024-03-23T04:20:31;98287.78;;;9.55;100.00
75594;BME280;64176;49.156;7.810;2024-03-23T04:23:18;98296.44;;;9.41;100.00
75594;BME280;64176;49.156;7.810;2024-03-23T04:26:07;98287.03;;;9.37;100.00
75594;BME280;64176;49.156;7.810;2024-03-23T04:28:53;98298.22;;;9.36;100.00
75594;BME280;64176;49.156;7.810;2024-03-23T04:31:37;98305.16;;;9.25;100.00
75594;BME280;64176;49.156;7.810;2024-03-23T04:34:22;98306.00;;;9.21;100.00
75594;BME280;64176;49.156;7.810;2024-03-23T04:37:07;98324.09;;;9.12;100.00
75594;BME280;64176;49.156;7.810;2024-03-23T04:39:53;98320.66;;;9.07;100.00
75594;BME280;64176;49.156;7.810;2024-03-23T04:42:38;98307.88;;;8.81;100.00
75594;BME280;64176;49.156;7.810;2024-03-23T04:45:27;98321.59;;;8.85;100.00
75594;BME280;64176;49.156;7.810;2024-03-23T04:48:13;98323.31;;;8.86;100.00
75594;BME280;64176;49.156;7.810;2024-03-23T04:50:57;98333.66;;;8.80;100.00
75594;BME280;64176;49.156;7.810;2024-03-23T04:53:44;98347.41;;;8.72;100.00
75594;BME280;64176;49.156;7.810;2024-03-23T04:56:30;98363.72;;;8.67;100.00
75594;BME280;64176;49.156;7.810;2024-03-23T04:59:15;98368.00;;;8.63;100.00
75594;BME280;64176;49.156;7.810;2024-03-23T05:02:04;98367.19;;;8.48;100.00
75594;BME280;64176;49.156;7.810;2024-03-23T05:04:48;98356.88;;;8.49;100.00
75594;BME280;64176;49.156;7.810;2024-03-23T05:07:32;98346.59;;;8.38;100.00
75594;BME280;64176;49.156;7.810;2024-03-23T05:10:16;98353.44;;;8.35;100.00
75594;BME280;64176;49.156;7.810;2024-03-23T05:13:03;98359.47;;;8.38;100.00
75594;BME280;64176;49.156;7.810;2024-03-23T05:15:56;98367.19;;;8.34;100.00
75594;BME280;64176;49.156;7.810;2024-03-23T05:18:42;98378.34;;;8.39;100.00
75594;BME280;64176;49.156;7.810;2024-03-23T05:21:30;98390.28;;;8.19;100.00
75594;BME280;64176;49.156;7.810;2024-03-23T05:24:14;98386.88;;;8.11;100.00
75594;BME280;64176;49.156;7.810;2024-03-23T05:26:58;98381.72;;;8.15;100.00
75594;BME280;64176;49.156;7.810;2024-03-23T05:29:43;98388.56;;;8.07;100.00
75594;BME280;64176;49.156;7.810;2024-03-23T05:32:29;98402.31;;;8.03;100.00
75594;BME280;64176;49.156;7.810;2024-03-23T05:35:16;98401.41;;;7.96;100.00
75594;BME280;64176;49.156;7.810;2024-03-23T05:38:02;98410.03;;;8.04;100.00
75594;BME280;64176;49.156;7.810;2024-03-23T05:41:00;98412.59;;;8.04;100.00
75594;BME280;64176;49.156;7.810;2024-03-23T05:43:49;98419.44;;;7.99;100.00
75594;BME280;64176;49.156;7.810;2024-03-23T05:46:36;98424.59;;;7.93;100.00
75594;BME280;64176;49.156;7.810;2024-03-23T05:49:22;98434.88;;;7.92;100.00
75594;BME280;64176;49.156;7.810;2024-03-23T05:52:14;98438.28;;;7.89;100.00
75594;BME280;64176;49.156;7.810;2024-03-23T05:55:00;98433.09;;;7.73;100.00
75594;BME280;64176;49.156;7.810;2024-03-23T05:57:45;98428.00;;;7.83;100.00
75594;BME280;64176;49.156;7.810;2024-03-23T06:00:29;98427.97;;;7.88;100.00
75594;BME280;64176;49.156;7.810;2024-03-23T06:03:13;98441.59;;;7.62;100.00
75594;BME280;64176;49.156;7.810;2024-03-23T06:06:02;98454.50;;;7.68;100.00
75594;BME280;64176;49.156;7.810;2024-03-23T06:08:51;98470.75;;;7.60;100.00
75594;BME280;64176;49.156;7.810;2024-03-23T06:11:37;98478.44;;;7.54;100.00
75594;BME280;64176;49.156;7.810;2024-03-23T06:14:24;98478.47;;;7.60;100.00
75594;BME280;64176;49.156;7.810;2024-03-23T06:17:10;98485.34;;;7.68;100.00
75594;BME280;64176;49.156;7.810;2024-03-23T06:19:54;98491.34;;;7.67;100.00
75594;BME280;64176;49.156;7.810;2024-03-23T06:22:41;98495.56;;;7.50;100.00
75594;BME280;64176;49.156;7.810;2024-03-23T06:25:27;98495.50;;;7.41;100.00
75594;BME280;64176;49.156;7.810;2024-03-23T06:28:11;98491.31;;;7.58;100.00
75594;BME280;64176;49.156;7.810;2024-03-23T06:30:58;98491.22;;;7.42;100.00
75594;BME280;64176;49.156;7.810;2024-03-23T06:33:44;98501.50;;;7.42;100.00
75594;BME280;64176;49.156;7.810;2024-03-23T06:36:31;98514.34;;;7.43;100.00
75594;BME280;64176;49.156;7.810;2024-03-23T06:39:15;98534.13;;;7.50;100.00
75594;BME280;64176;49.156;7.810;2024-03-23T06:42:02;98547.84;;;7.54;100.00
75594;BME280;64176;49.156;7.810;2024-03-23T06:44:46;98564.97;;;7.49;100.00
75594;BME280;64176;49.156;7.810;2024-03-23T06:47:33;98560.63;;;7.39;100.00
75594;BME280;64176;49.156;7.810;2024-03-23T06:50:19;98546.91;;;7.41;100.00
75594;BME280;64176;49.156;7.810;2024-03-23T06:53:06;98552.03;;;7.41;100.00
75594;BME280;64176;49.156;7.810;2024-03-23T06:55:53;98565.75;;;7.42;100.00
75594;BME280;64176;49.156;7.810;2024-03-23T06:58:37;98556.28;;;7.33;100.00
75594;BME280;64176;49.156;7.810;2024-03-23T07:01:21;98568.41;;;7.49;100.00
75594;BME280;64176;49.156;7.810;2024-03-23T07:04:05;98581.31;;;7.60;100.00
75594;BME280;64176;49.156;7.810;2024-03-23T07:06:53;98588.13;;;7.53;100.00
75594;BME280;64176;49.156;7.810;2024-03-23T07:09:39;98601.84;;;7.54;100.00
75594;BME280;64176;49.156;7.810;2024-03-23T07:12:26;98603.59;;;7.62;100.00
75594;BME280;64176;49.156;7.810;2024-03-23T07:15:10;98608.81;;;7.75;100.00
75594;BME280;64176;49.156;7.810;2024-03-23T07:17:57;98615.59;;;7.59;100.00
75594;BME280;64176;49.156;7.810;2024-03-23T07:20:41;98625.06;;;7.66;100.00
75594;BME280;64176;49.156;7.810;2024-03-23T07:23:25;98621.53;;;7.52;100.00
75594;BME280;64176;49.156;7.810;2024-03-23T07:26:09;98641.34;;;7.66;100.00
75594;BME280;64176;49.156;7.810;2024-03-23T07:28:55;98648.19;;;7.63;100.00
75594;BME280;64176;49.156;7.810;2024-03-23T07:31:40;98659.34;;;7.65;100.00
75594;BME280;64176;49.156;7.810;2024-03-23T07:34:27;98650.69;;;7.51;100.00
75594;BME280;64176;49.156;7.810;2024-03-23T07:37:13;98671.19;;;7.45;100.00
75594;BME280;64176;49.156;7.810;2024-03-23T07:39:57;98708.88;;;7.43;100.00
75594;BME280;64176;49.156;7.810;2024-03-23T07:42:48;98692.66;;;7.51;100.00
75594;BME280;64176;49.156;7.810;2024-03-23T07:45:32;98693.44;;;8.76;92.45
75594;BME280;64176;49.156;7.810;2024-03-23T07:48:20;98702.19;;;7.63;100.00
75594;BME280;64176;49.156;7.810;2024-03-23T07:53:55;98691.91;;;9.59;85.79
75594;BME280;64176;49.156;7.810;2024-03-23T07:56:39;98690.97;;;9.05;88.88
75594;BME280;64176;49.156;7.810;2024-03-23T07:59:25;98703.72;;;8.67;90.03
75594;BME280;64176;49.156;7.810;2024-03-23T08:02:12;98711.47;;;8.71;88.73
75594;BME280;64176;49.156;7.810;2024-03-23T08:04:58;98707.03;;;8.43;89.99
75594;BME280;64176;49.156;7.810;2024-03-23T08:07:45;98702.84;;;8.66;86.85
75594;BME280;64176;49.156;7.810;2024-03-23T08:10:31;98709.63;;;8.43;85.13
75594;BME280;64176;49.156;7.810;2024-03-23T08:13:18;98709.72;;;8.61;85.76
75594;BME280;64176;49.156;7.810;2024-03-23T08:16:03;98697.72;;;8.66;83.31
75594;BME280;64176;49.156;7.810;2024-03-23T08:18:53;98705.50;;;8.85;83.03
75594;BME280;64176;49.156;7.810;2024-03-23T08:21:40;98708.09;;;8.91;84.45
75594;BME280;64176;49.156;7.810;2024-03-23T08:24:25;98709.81;;;8.95;84.91
75594;BME280;64176;49.156;7.810;2024-03-23T08:27:11;98717.50;;;8.78;86.31
75594;BME280;64176;49.156;7.810;2024-03-23T08:29:55;98720.16;;;8.99;83.00
75594;BME280;64176;49.156;7.810;2024-03-23T08:32:42;98733.78;;;8.66;81.61
75594;BME280;64176;49.156;7.810;2024-03-23T08:35:26;98722.53;;;8.52;81.97
75594;BME280;64176;49.156;7.810;2024-03-23T08:38:10;98731.16;;;8.63;80.29
75594;BME280;64176;49.156;7.810;2024-03-23T08:41:01;98728.59;;;8.63;79.26
75594;BME280;64176;49.156;7.810;2024-03-23T08:43:46;98720.03;;;8.64;78.52
75594;BME280;64176;49.156;7.810;2024-03-23T08:46:31;98711.47;;;8.74;76.70
75594;BME280;64176;49.156;7.810;2024-03-23T08:49:17;98739.00;;;8.88;78.17
75594;BME280;64176;49.156;7.810;2024-03-23T08:52:04;98741.41;;;8.48;75.01
75594;BME280;64176;49.156;7.810;2024-03-23T08:54:48;98744.81;;;8.46;75.56
75594;BME280;64176;49.156;7.810;2024-03-23T08:57:32;98753.56;;;8.75;75.47
75594;BME280;64176;49.156;7.810;2024-03-23T09:00:16;98763.75;;;8.54;77.18
75594;BME280;64176;49.156;7.810;2024-03-23T09:03:01;98777.41;;;8.37;77.52
75594;BME280;64176;49.156;7.810;2024-03-23T09:05:46;98792.72;;;8.25;80.08
75594;BME280;64176;49.156;7.810;2024-03-23T09:08:33;98785.16;;;8.45;81.06
75594;BME280;64176;49.156;7.810;2024-03-23T09:11:18;98810.97;;;8.50;82.42
75594;BME280;64176;49.156;7.810;2024-03-23T09:14:03;98813.16;;;8.07;85.49
75594;BME280;64176;49.156;7.810;2024-03-23T09:16:50;98822.53;;;7.97;87.01
75594;BME280;64176;49.156;7.810;2024-03-23T09:19:34;98822.22;;;7.65;92.91
75594;BME280;64176;49.156;7.810;2024-03-23T09:22:18;98817.19;;;7.73;96.05
75594;BME280;64176;49.156;7.810;2024-03-23T09:25:05;98819.88;;;7.90;97.77
75594;BME280;64176;49.156;7.810;2024-03-23T09:27:54;98807.56;;;7.57;100.00
75594;BME280;64176;49.156;7.810;2024-03-23T09:30:41;98798.38;;;7.80;100.00
75594;BME280;64176;49.156;7.810;2024-03-23T09:33:28;98802.66;;;7.81;100.00
75594;BME280;64176;49.156;7.810;2024-03-23T09:36:16;98797.53;;;7.84;100.00
75594;BME280;64176;49.156;7.810;2024-03-23T09:39:02;98804.44;;;7.90;100.00
75594;BME280;64176;49.156;7.810;2024-03-23T09:41:47;98792.28;;;7.71;100.00
75594;BME280;64176;49.156;7.810;2024-03-23T09:44:31;98792.34;;;7.78;100.00
75594;BME280;64176;49.156;7.810;2024-03-23T09:47:15;98790.59;;;7.76;100.00
75594;BME280;64176;49.156;7.810;2024-03-23T09:50:00;98783.19;;;8.11;100.00
75594;BME280;64176;49.156;7.810;2024-03-23T09:52:47;98780.72;;;8.26;100.00
75594;BME280;64176;49.156;7.810;2024-03-23T09:55:31;98777.47;;;8.50;100.00
75594;BME280;64176;49.156;7.810;2024-03-23T09:58:18;98766.22;;;8.34;100.00
75594;BME280;64176;49.156;7.810;2024-03-23T10:01:02;98774.03;;;8.51;98.75
75594;BME280;64176;49.156;7.810;2024-03-23T10:03:47;98773.31;;;8.77;97.50
75594;BME280;64176;49.156;7.810;2024-03-23T10:06:33;98769.88;;;8.75;96.94
75594;BME280;64176;49.156;7.810;2024-03-23T10:09:17;98769.16;;;9.11;93.72
75594;BME280;64176;49.156;7.810;2024-03-23T10:12:09;98758.03;;;9.22;91.24
75594;BME280;64176;49.156;7.810;2024-03-23T10:14:56;98769.00;;;8.75;78.93
75594;BME280;64176;49.156;7.810;2024-03-23T10:17:42;98764.72;;;8.75;78.07
75594;BME280;64176;49.156;7.810;2024-03-23T10:20:29;98755.38;;;9.00;74.76
75594;BME280;64176;49.156;7.810;2024-03-23T10:23:16;98765.78;;;9.26;73.40
75594;BME280;64176;49.156;7.810;2024-03-23T10:26:23;98765.78;;;9.32;73.86
75594;BME280;64176;49.156;7.810;2024-03-23T10:29:11;98763.19;;;9.29;74.24
75594;BME280;64176;49.156;7.810;2024-03-23T10:32:13;98773.56;;;9.50;71.70
75594;BME280;64176;49.156;7.810;2024-03-23T10:35:13;98776.16;;;9.63;72.38
75594;BME280;64176;49.156;7.810;2024-03-23T10:37:58;98773.47;;;9.20;72.02
75594;BME280;64176;49.156;7.810;2024-03-23T10:40:42;98782.22;;;9.88;70.02
75594;BME280;64176;49.156;7.810;2024-03-23T10:43:26;98784.81;;;10.18;65.00
75594;BME280;64176;49.156;7.810;2024-03-23T10:46:13;98779.66;;;10.03;63.40
75594;BME280;64176;49.156;7.810;2024-03-23T10:49:00;98781.34;;;9.75;62.64
75594;BME280;64176;49.156;7.810;2024-03-23T10:51:44;98779.59;;;9.54;62.00
75594;BME280;64176;49.156;7.810;2024-03-23T10:54:29;98765.00;;;9.58;60.16
75594;BME280;64176;49.156;7.810;2024-03-23T10:57:27;98760.69;;;9.58;63.00
75594;BME280;64176;49.156;7.810;2024-03-23T11:00:15;98766.72;;;10.06;62.68
75594;BME280;64176;49.156;7.810;2024-03-23T11:06:36;98751.22;;;10.06;59.08
75594;BME280;64176;49.156;7.810;2024-03-23T11:12:30;98758.97;;;9.97;56.79
75594;BME280;64176;49.156;7.810;2024-03-23T11:15:16;98725.44;;;9.57;57.49
75594;BME280;64176;49.156;7.810;2024-03-23T11:18:07;98734.03;;;9.97;57.27
75594;BME280;64176;49.156;7.810;2024-03-23T11:20:56;98729.75;;;9.93;56.65
75594;BME280;64176;49.156;7.810;2024-03-23T11:23:39;98726.28;;;10.14;53.47
75594;BME280;64176;49.156;7.810;2024-03-23T11:26:23;98722.81;;;10.06;50.90
75594;BME280;64176;49.156;7.810;2024-03-23T11:29:12;98718.53;;;10.03;50.70
75594;BME280;64176;49.156;7.810;2024-03-23T11:31:56;98717.69;;;10.03;51.92
75594;BME280;64176;49.156;7.810;2024-03-23T11:34:42;98735.75;;;10.18;51.89
75594;BME280;64176;49.156;7.810;2024-03-23T11:37:28;98743.50;;;9.97;52.19
75594;BME280;64176;49.156;7.810;2024-03-23T11:40:19;98737.44;;;10.17;52.53
75594;BME280;64176;49.156;7.810;2024-03-23T11:43:08;98728.00;;;9.98;52.89
75594;BME280;64176;49.156;7.810;2024-03-23T11:45:52;98755.53;;;9.75;54.24
75594;BME280;64176;49.156;7.810;2024-03-23T11:48:39;98773.00;;;8.29;64.79
75594;BME280;64176;49.156;7.810;2024-03-23T11:51:31;98773.63;;;7.96;79.47
75594;BME280;64176;49.156;7.810;2024-03-23T11:54:23;98769.03;;;7.58;85.20
75594;BME280;64176;49.156;7.810;2024-03-23T11:57:10;98763.41;;;8.05;85.78
75594;BME280;64176;49.156;7.810;2024-03-23T11:59:54;98755.16;;;8.53;90.10
75594;BME280;64176;49.156;7.810;2024-03-23T12:02:38;98753.22;;;8.17;91.40
75594;BME280;64176;49.156;7.810;2024-03-23T12:05:22;98762.13;;;8.68;91.77
75594;BME280;64176;49.156;7.810;2024-03-23T12:11:06;98821.66;;;7.14;100.00
75594;BME280;64176;49.156;7.810;2024-03-23T12:13:50;98831.97;;;6.53;100.00
75594;BME280;64176;49.156;7.810;2024-03-23T12:16:36;98812.03;;;6.98;100.00
75594;BME280;64176;49.156;7.810;2024-03-23T12:19:19;98828.81;;;7.41;100.00
75594;BME280;64176;49.156;7.810;2024-03-23T12:22:08;98833.22;;;7.52;100.00
75594;BME280;64176;49.156;7.810;2024-03-23T12:24:52;98822.25;;;7.67;96.94
75594;BME280;64176;49.156;7.810;2024-03-23T12:27:39;98819.63;;;7.64;96.39
75594;BME280;64176;49.156;7.810;2024-03-23T12:30:28;98813.78;;;7.79;94.21
75594;BME280;64176;49.156;7.810;2024-03-23T12:33:12;98797.59;;;7.90;93.93
75594;BME280;64176;49.156;7.810;2024-03-23T12:35:56;98783.97;;;8.02;88.20
75594;BME280;64176;49.156;7.810;2024-03-23T12:38:41;98778.28;;;8.43;84.17
75594;BME280;64176;49.156;7.810;2024-03-23T12:41:33;98766.25;;;8.40;79.28
75594;BME280;64176;49.156;7.810;2024-03-23T12:44:17;98739.53;;;8.24;75.88
75594;BME280;64176;49.156;7.810;2024-03-23T12:47:01;98759.91;;;7.98;77.18
75594;BME280;64176;49.156;7.810;2024-03-23T12:49:48;98777.31;;;8.27;81.66
75594;BME280;64176;49.156;7.810;2024-03-23T12:52:36;98782.34;;;8.18;83.86
75594;BME280;64176;49.156;7.810;2024-03-23T12:55:20;98765.19;;;7.20;88.22
75594;BME280;64176;49.156;7.810;2024-03-23T12:58:05;98764.75;;;7.59;90.76
75594;BME280;64176;49.156;7.810;2024-03-23T13:00:49;98761.50;;;7.81;89.17
75594;BME280;64176;49.156;7.810;2024-03-23T13:03:35;98760.72;;;7.91;85.44
75594;BME280;64176;49.156;7.810;2024-03-23T13:06:22;98756.28;;;7.74;85.58
75594;BME280;64176;49.156;7.810;2024-03-23T13:09:08;98758.88;;;7.77;82.03
75594;BME280;64176;49.156;7.810;2024-03-23T13:11:57;98757.25;;;7.86;82.42
75594;BME280;64176;49.156;7.810;2024-03-23T13:14:41;98757.34;;;7.98;82.54
75594;BME280;64176;49.156;7.810;2024-03-23T13:17:29;98769.69;;;7.42;86.51
75594;BME280;64176;49.156;7.810;2024-03-23T13:20:13;98829.72;;;5.69;100.00
75594;BME280;64176;49.156;7.810;2024-03-23T13:22:58;98807.72;;;5.82;100.00
75594;BME280;64176;49.156;7.810;2024-03-23T13:28:36;98770.16;;;6.38;100.00
75594;BME280;64176;49.156;7.810;2024-03-23T13:31:21;98773.22;;;6.76;100.00
75594;BME280;64176;49.156;7.810;2024-03-23T13:34:05;98765.75;;;6.30;100.00
75594;BME280;64176;49.156;7.810;2024-03-23T13:36:49;98767.75;;;7.20;100.00
75594;BME280;64176;49.156;7.810;2024-03-23T13:39:33;98756.50;;;7.10;100.00
75594;BME280;64176;49.156;7.810;2024-03-23T13:42:17;98756.88;;;7.44;100.00
75594;BME280;64176;49.156;7.810;2024-03-23T13:45:06;98743.19;;;7.46;100.00
75594;BME280;64176;49.156;7.810;2024-03-23T13:47:50;98758.69;;;7.55;100.00
75594;BME280;64176;49.156;7.810;2024-03-23T13:50:34;98756.13;;;7.57;100.00
75594;BME280;64176;49.156;7.810;2024-03-23T13:53:18;98752.16;;;7.95;100.00
75594;BME280;64176;49.156;7.810;2024-03-23T13:56:05;98745.66;;;8.38;100.00
75594;BME280;64176;49.156;7.810;2024-03-23T13:58:49;98740.41;;;8.29;100.00
75594;BME280;64176;49.156;7.810;2024-03-23T14:01:32;98730.06;;;8.22;100.00
75594;BME280;64176;49.156;7.810;2024-03-23T14:04:19;98729.47;;;8.64;100.00
75594;BME280;64176;49.156;7.810;2024-03-23T14:07:06;98733.72;;;8.62;100.00
75594;BME280;64176;49.156;7.810;2024-03-23T14:09:52;98709.00;;;9.00;100.00
75594;BME280;64176;49.156;7.810;2024-03-23T14:12:39;98712.38;;;8.89;94.67
75594;BME280;64176;49.156;7.810;2024-03-23T14:15:28;98706.16;;;8.39;93.25
75594;BME280;64176;49.156;7.810;2024-03-23T14:18:14;98696.78;;;8.51;94.51
75594;BME280;64176;49.156;7.810;2024-03-23T14:21:00;98690.81;;;8.58;92.23
75594;BME280;64176;49.156;7.810;2024-03-23T14:23:44;98677.84;;;8.41;91.23
75594;BME280;64176;49.156;7.810;2024-03-23T14:26:28;98675.41;;;8.74;93.25
75594;BME280;64176;49.156;7.810;2024-03-23T14:29:15;98668.53;;;8.75;90.28
75594;BME280;64176;49.156;7.810;2024-03-23T14:31:59;98664.25;;;8.72;90.48
75594;BME280;64176;49.156;7.810;2024-03-23T14:34:44;98641.97;;;9.00;83.58
75594;BME280;64176;49.156;7.810;2024-03-23T14:37:28;98650.53;;;8.78;82.33
75594;BME280;64176;49.156;7.810;2024-03-23T14:40:15;98645.38;;;8.80;81.97
75594;BME280;64176;49.156;7.810;2024-03-23T14:42:59;98648.84;;;8.97;79.98
75594;BME280;64176;49.156;7.810;2024-03-23T14:46:10;98636.84;;;9.05;78.19
75594;BME280;64176;49.156;7.810;2024-03-23T14:48:57;98639.38;;;8.85;75.14
75594;BME280;64176;49.156;7.810;2024-03-23T14:51:44;98640.28;;;9.05;74.27
75594;BME280;64176;49.156;7.810;2024-03-23T14:54:32;98636.84;;;9.11;70.61
75594;BME280;64176;49.156;7.810;2024-03-23T14:57:16;98619.66;;;9.08;73.26
75594;BME280;64176;49.156;7.810;2024-03-23T15:00:04;98635.13;;;9.04;74.04
75594;BME280;64176;49.156;7.810;2024-03-23T15:02:48;98624.78;;;8.81;73.89
75594;BME280;64176;49.156;7.810;2024-03-23T15:05:35;98634.19;;;8.74;72.42
75594;BME280;64176;49.156;7.810;2024-03-23T15:08:21;98660.75;;;8.49;74.34
75594;BME280;64176;49.156;7.810;2024-03-23T15:11:08;98672.53;;;8.18;79.28
75594;BME280;64176;49.156;7.810;2024-03-23T15:13:52;98700.19;;;7.28;96.64
75594;BME280;64176;49.156;7.810;2024-03-23T15:16:38;98703.66;;;6.56;100.00
75594;BME280;64176;49.156;7.810;2024-03-23T15:19:22;98703.19;;;6.89;100.00
75594;BME280;64176;49.156;7.810;2024-03-23T15:22:11;98704.97;;;6.93;100.00
75594;BME280;64176;49.156;7.810;2024-03-23T15:25:00;98706.47;;;6.76;100.00
75594;BME280;64176;49.156;7.810;2024-03-23T15:27:44;98702.28;;;6.15;100.00
75594;BME280;64176;49.156;7.810;2024-03-23T15:30:28;98734.00;;;6.21;100.00
75594;BME280;64176;49.156;7.810;2024-03-23T15:33:12;98734.00;;;6.21;100.00
75594;BME280;64176;49.156;7.810;2024-03-23T15:36:00;98729.28;;;5.92;100.00
75594;BME280;64176;49.156;7.810;2024-03-23T15:38:44;98719.31;;;6.11;100.00
75594;BME280;64176;49.156;7.810;2024-03-23T15:41:29;98716.28;;;6.41;100.00
75594;BME280;64176;49.156;7.810;2024-03-23T15:44:15;98708.75;;;6.50;100.00
75594;BME280;64176;49.156;7.810;2024-03-23T15:46:59;98722.28;;;6.39;100.00
75594;BME280;64176;49.156;7.810;2024-03-23T15:49:45;98723.41;;;6.00;100.00
75594;BME280;64176;49.156;7.810;2024-03-23T15:52:32;98717.63;;;6.13;100.00